PDT,Max TemperatureF,Mean TemperatureF,Min TemperatureF,Max Dew PointF,MeanDew PointF,Min DewpointF,Max Humidity, Mean Humidity, Min Humidity, Max Sea Level PressureIn, Mean Sea Level PressureIn, Min Sea Level PressureIn, Max VisibilityMiles, Mean VisibilityMiles, Min VisibilityMiles, Max Wind SpeedMPH, Mean Wind SpeedMPH, Max Gust SpeedMPH,PrecipitationIn, CloudCover, Events, WindDirDegrees
2013-9-1,83,76,69,66,64,59,84,70,55,29.96,29.92,29.89,10,10,10,13,4,15,0.00,0,,254
2013-9-2,82,74,65,65,64,62,87,71,55,29.94,29.89,29.83,10,10,10,21,4,,0.00,0,,261
2013-9-3,86,76,66,65,63,61,87,69,51,29.92,29.88,29.84,10,10,10,12,4,15,0.00,0,,256
2013-9-4,82,73,64,62,61,59,87,69,51,29.94,29.90,29.87,10,10,7,12,4,,0.00,0,,260
2013-9-5,85,74,63,62,60,59,87,66,44,29.91,29.88,29.85,10,9,7,10,4,18,0.00,0,,251
2013-9-6,86,75,63,61,60,58,90,67,43,29.89,29.86,29.82,10,9,7,12,4,16,0.00,0,,259
2013-9-7,81,71,60,61,59,56,90,70,49,29.90,29.86,29.83,10,9,7,13,4,16,0.00,0,,262
2013-9-8,75,68,61,60,58,56,97,75,53,29.88,29.84,29.77,10,9,3,12,4,,0.00,1,,267
2013-9-9,71,66,60,59,58,57,90,78,66,29.85,29.81,29.76,10,6,0,13,4,16,0.00,6,Fog,261
2013-9-10,73,67,61,59,57,57,90,76,61,29.96,29.90,29.81,10,9,7,14,4,25,0.00,4,,224
2013-9-11,75,68,61,59,58,57,84,71,57,30.03,29.98,29.95,10,10,8,13,4,16,0.00,3,,276
2013-9-12,80,68,56,60,57,52,90,69,48,29.96,29.91,29.85,10,10,8,13,4,15,0.00,0,,261
2013-9-13,79,69,58,59,57,54,90,69,48,29.84,29.77,29.70,10,10,8,12,3,17,0.00,0,,258
2013-9-14,80,70,59,60,58,55,90,69,47,29.75,29.71,29.67,10,10,8,12,4,15,0.00,0,,266
2013-9-15,79,69,58,61,58,55,90,71,52,29.79,29.76,29.71,10,9,8,13,4,16,0.00,0,,268
2013-9-16,78,67,56,60,57,52,90,71,52,29.86,29.81,29.77,10,10,8,12,4,15,0.00,0,,269
2013-9-17,74,66,57,59,57,55,100,79,57,29.85,29.80,29.76,10,6,0,14,3,20,0.00,3,Fog,220
2013-9-18,74,66,57,60,57,53,90,74,57,29.84,29.79,29.75,10,8,5,12,4,17,0.00,2,,226
2013-9-19,74,66,57,61,58,53,97,81,64,29.86,29.81,29.76,10,6,0,13,5,16,0.00,5,Fog,235
2013-9-20,71,67,63,60,59,57,84,79,73,29.91,29.88,29.84,10,8,5,13,5,15,0.00,8,,230
2013-9-21,76,68,59,61,58,55,84,69,53,29.94,29.87,29.80,10,10,9,21,6,25,0.00,6,,261
2013-9-22,77,66,55,57,53,44,93,63,33,29.88,29.83,29.79,10,10,10,14,4,18,0.00,0,,273
2013-9-23,85,70,54,53,48,42,80,52,23,29.89,29.87,29.83,10,10,9,12,3,15,0.00,0,,237
2013-9-24,83,69,54,58,50,42,84,56,28,29.96,29.90,29.86,10,10,9,13,4,16,0.00,0,,235
2013-9-25,74,64,53,57,53,50,84,67,49,29.86,29.79,29.71,10,10,9,14,5,21,0.00,0,,210
2013-9-26,75,65,55,54,49,42,83,58,33,29.92,29.82,29.74,10,10,10,26,6,32,0.00,2,,260
2013-9-27,85,67,48,47,34,23,74,43,12,30.01,29.97,29.91,10,10,10,24,9,28,0.00,0,,9
2013-9-28,82,67,51,45,36,29,59,38,16,30.06,30.02,29.99,10,10,10,13,4,16,0.00,0,,233
2013-9-29,78,65,51,56,45,35,78,52,25,30.09,30.03,30.00,10,10,10,13,4,16,0.00,0,,244
2013-9-30,78,64,50,58,50,41,84,58,31,30.00,29.94,29.87,10,10,9,12,3,17,0.00,0,,207